sensor_id;sensor_type;location;lat;lon;timestamp;P1;durP1;ratioP1;P2;durP2;ratioP2
20251;SDS011;10284;58.364;15.550;2023-07-08T00:01:23;4.85;;;2.20;;
20251;SDS011;10284;58.364;15.550;2023-07-08T00:03:48;3.90;;;2.17;;
20251;SDS011;10284;58.364;15.550;2023-07-08T00:06:16;2.95;;;2.08;;
20251;SDS011;10284;58.364;15.550;2023-07-08T00:08:43;6.32;;;2.55;;
20251;SDS011;10284;58.364;15.550;2023-07-08T00:11:12;4.38;;;2.08;;
20251;SDS011;10284;58.364;15.550;2023-07-08T00:13:38;4.25;;;2.38;;
20251;SDS011;10284;58.364;15.550;2023-07-08T00:16:04;6.85;;;2.08;;
20251;SDS011;10284;58.364;15.550;2023-07-08T00:18:29;7.07;;;2.38;;
20251;SDS011;10284;58.364;15.550;2023-07-08T00:20:55;5.85;;;2.38;;
20251;SDS011;10284;58.364;15.550;2023-07-08T00:23:21;4.47;;;2.42;;
20251;SDS011;10284;58.364;15.550;2023-07-08T00:25:47;3.03;;;2.00;;
20251;SDS011;10284;58.364;15.550;2023-07-08T00:28:16;6.05;;;2.28;;
20251;SDS011;10284;58.364;15.550;2023-07-08T00:30:44;3.60;;;2.25;;
20251;SDS011;10284;58.364;15.550;2023-07-08T00:33:10;5.75;;;2.28;;
20251;SDS011;10284;58.364;15.550;2023-07-08T00:38:04;5.60;;;2.40;;
20251;SDS011;10284;58.364;15.550;2023-07-08T00:40:47;4.75;;;2.53;;
20251;SDS011;10284;58.364;15.550;2023-07-08T00:43:15;4.63;;;2.50;;
20251;SDS011;10284;58.364;15.550;2023-07-08T00:45:42;5.97;;;2.78;;
20251;SDS011;10284;58.364;15.550;2023-07-08T00:48:45;4.82;;;2.38;;
20251;SDS011;10284;58.364;15.550;2023-07-08T00:51:03;6.13;;;2.60;;
20251;SDS011;10284;58.364;15.550;2023-07-08T00:53:32;4.35;;;2.50;;
20251;SDS011;10284;58.364;15.550;2023-07-08T00:58:43;4.03;;;2.30;;
20251;SDS011;10284;58.364;15.550;2023-07-08T01:01:19;6.43;;;2.83;;
20251;SDS011;10284;58.364;15.550;2023-07-08T01:03:49;5.35;;;2.70;;
20251;SDS011;10284;58.364;15.550;2023-07-08T01:06:18;6.05;;;2.72;;
20251;SDS011;10284;58.364;15.550;2023-07-08T01:08:45;5.15;;;2.50;;
20251;SDS011;10284;58.364;15.550;2023-07-08T01:11:11;5.18;;;2.50;;
20251;SDS011;10284;58.364;15.550;2023-07-08T01:13:40;8.07;;;2.78;;
20251;SDS011;10284;58.364;15.550;2023-07-08T01:16:08;4.95;;;3.17;;
20251;SDS011;10284;58.364;15.550;2023-07-08T01:18:34;6.35;;;2.78;;
20251;SDS011;10284;58.364;15.550;2023-07-08T01:21:02;6.25;;;2.72;;
20251;SDS011;10284;58.364;15.550;2023-07-08T01:23:31;4.60;;;3.05;;
20251;SDS011;10284;58.364;15.550;2023-07-08T01:25:57;5.00;;;3.05;;
20251;SDS011;10284;58.364;15.550;2023-07-08T01:28:24;6.43;;;3.10;;
20251;SDS011;10284;58.364;15.550;2023-07-08T01:30:51;6.22;;;2.80;;
20251;SDS011;10284;58.364;15.550;2023-07-08T01:33:18;4.65;;;3.13;;
20251;SDS011;10284;58.364;15.550;2023-07-08T01:35:47;4.60;;;3.10;;
20251;SDS011;10284;58.364;15.550;2023-07-08T01:38:15;4.70;;;2.97;;
20251;SDS011;10284;58.364;15.550;2023-07-08T01:40:51;9.20;;;3.30;;
20251;SDS011;10284;58.364;15.550;2023-07-08T01:43:18;5.85;;;3.13;;
20251;SDS011;10284;58.364;15.550;2023-07-08T01:45:44;5.32;;;2.95;;
20251;SDS011;10284;58.364;15.550;2023-07-08T01:48:11;7.47;;;2.90;;
20251;SDS011;10284;58.364;15.550;2023-07-08T01:50:42;5.70;;;2.60;;
20251;SDS011;10284;58.364;15.550;2023-07-08T01:53:12;6.07;;;3.13;;
20251;SDS011;10284;58.364;15.550;2023-07-08T01:55:40;6.05;;;2.90;;
20251;SDS011;10284;58.364;15.550;2023-07-08T01:58:05;5.53;;;2.92;;
20251;SDS011;10284;58.364;15.550;2023-07-08T02:00:31;6.07;;;2.97;;
20251;SDS011;10284;58.364;15.550;2023-07-08T02:02:56;7.10;;;2.80;;
20251;SDS011;10284;58.364;15.550;2023-07-08T02:05:22;7.03;;;3.15;;
20251;SDS011;10284;58.364;15.550;2023-07-08T02:07:48;5.25;;;2.95;;
20251;SDS011;10284;58.364;15.550;2023-07-08T02:10:13;7.35;;;3.20;;
20251;SDS011;10284;58.364;15.550;2023-07-08T02:12:39;8.45;;;3.33;;
20251;SDS011;10284;58.364;15.550;2023-07-08T02:15:05;6.63;;;3.25;;
20251;SDS011;10284;58.364;15.550;2023-07-08T02:17:31;7.25;;;3.30;;
20251;SDS011;10284;58.364;15.550;2023-07-08T02:19:56;3.50;;;2.92;;
20251;SDS011;10284;58.364;15.550;2023-07-08T02:22:21;6.93;;;3.10;;
20251;SDS011;10284;58.364;15.550;2023-07-08T02:24:48;9.20;;;3.28;;
20251;SDS011;10284;58.364;15.550;2023-07-08T02:27:13;15.38;;;3.30;;
20251;SDS011;10284;58.364;15.550;2023-07-08T02:29:39;5.63;;;3.13;;
20251;SDS011;10284;58.364;15.550;2023-07-08T02:32:05;6.53;;;3.00;;
20251;SDS011;10284;58.364;15.550;2023-07-08T02:34:31;4.95;;;3.40;;
20251;SDS011;10284;58.364;15.550;2023-07-08T02:36:56;6.55;;;2.90;;
20251;SDS011;10284;58.364;15.550;2023-07-08T02:39:22;5.20;;;3.17;;
20251;SDS011;10284;58.364;15.550;2023-07-08T02:41:48;5.63;;;2.80;;
20251;SDS011;10284;58.364;15.550;2023-07-08T02:44:13;8.55;;;3.75;;
20251;SDS011;10284;58.364;15.550;2023-07-08T02:46:39;4.68;;;3.33;;
20251;SDS011;10284;58.364;15.550;2023-07-08T02:49:04;6.72;;;2.85;;
20251;SDS011;10284;58.364;15.550;2023-07-08T02:51:30;4.82;;;2.88;;
20251;SDS011;10284;58.364;15.550;2023-07-08T02:53:56;5.63;;;3.65;;
20251;SDS011;10284;58.364;15.550;2023-07-08T02:56:21;6.03;;;2.90;;
20251;SDS011;10284;58.364;15.550;2023-07-08T02:58:48;4.78;;;2.70;;
20251;SDS011;10284;58.364;15.550;2023-07-08T03:01:13;6.55;;;3.10;;
20251;SDS011;10284;58.364;15.550;2023-07-08T03:03:43;7.70;;;3.13;;
20251;SDS011;10284;58.364;15.550;2023-07-08T03:06:11;4.57;;;2.80;;
20251;SDS011;10284;58.364;15.550;2023-07-08T03:08:37;5.88;;;2.90;;
20251;SDS011;10284;58.364;15.550;2023-07-08T03:11:04;4.78;;;3.33;;
20251;SDS011;10284;58.364;15.550;2023-07-08T03:13:31;5.78;;;2.63;;
20251;SDS011;10284;58.364;15.550;2023-07-08T03:15:57;6.20;;;3.13;;
20251;SDS011;10284;58.364;15.550;2023-07-08T03:18:24;6.78;;;2.95;;
20251;SDS011;10284;58.364;15.550;2023-07-08T03:20:51;8.13;;;3.42;;
20251;SDS011;10284;58.364;15.550;2023-07-08T03:23:18;12.80;;;3.30;;
20251;SDS011;10284;58.364;15.550;2023-07-08T03:25:43;5.55;;;3.10;;
20251;SDS011;10284;58.364;15.550;2023-07-08T03:28:09;4.10;;;2.90;;
20251;SDS011;10284;58.364;15.550;2023-07-08T03:30:38;7.47;;;3.47;;
20251;SDS011;10284;58.364;15.550;2023-07-08T03:33:03;6.38;;;2.85;;
20251;SDS011;10284;58.364;15.550;2023-07-08T03:35:28;4.45;;;3.15;;
20251;SDS011;10284;58.364;15.550;2023-07-08T03:37:54;5.63;;;3.60;;
20251;SDS011;10284;58.364;15.550;2023-07-08T03:40:19;6.00;;;3.53;;
20251;SDS011;10284;58.364;15.550;2023-07-08T03:42:45;7.25;;;3.80;;
20251;SDS011;10284;58.364;15.550;2023-07-08T03:45:10;8.48;;;3.63;;
20251;SDS011;10284;58.364;15.550;2023-07-08T03:47:36;7.68;;;3.40;;
20251;SDS011;10284;58.364;15.550;2023-07-08T03:50:01;7.40;;;3.65;;
20251;SDS011;10284;58.364;15.550;2023-07-08T03:52:27;8.80;;;3.58;;
20251;SDS011;10284;58.364;15.550;2023-07-08T03:54:52;5.20;;;3.40;;
20251;SDS011;10284;58.364;15.550;2023-07-08T03:57:18;9.90;;;3.65;;
20251;SDS011;10284;58.364;15.550;2023-07-08T03:59:43;8.25;;;3.53;;
20251;SDS011;10284;58.364;15.550;2023-07-08T04:02:11;7.05;;;3.50;;
20251;SDS011;10284;58.364;15.550;2023-07-08T04:04:37;11.85;;;3.65;;
20251;SDS011;10284;58.364;15.550;2023-07-08T04:07:03;7.68;;;3.92;;
20251;SDS011;10284;58.364;15.550;2023-07-08T04:09:29;8.27;;;3.42;;
20251;SDS011;10284;58.364;15.550;2023-07-08T04:11:55;8.60;;;3.50;;
20251;SDS011;10284;58.364;15.550;2023-07-08T04:14:20;7.40;;;3.50;;
20251;SDS011;10284;58.364;15.550;2023-07-08T04:19:14;8.43;;;3.60;;
20251;SDS011;10284;58.364;15.550;2023-07-08T04:21:40;10.93;;;3.88;;
20251;SDS011;10284;58.364;15.550;2023-07-08T04:24:08;9.60;;;3.90;;
20251;SDS011;10284;58.364;15.550;2023-07-08T04:26:35;8.40;;;3.47;;
20251;SDS011;10284;58.364;15.550;2023-07-08T04:29:01;9.52;;;3.92;;
20251;SDS011;10284;58.364;15.550;2023-07-08T04:31:27;8.48;;;3.78;;
20251;SDS011;10284;58.364;15.550;2023-07-08T04:33:52;8.65;;;4.18;;
20251;SDS011;10284;58.364;15.550;2023-07-08T04:36:18;9.75;;;3.88;;
20251;SDS011;10284;58.364;15.550;2023-07-08T04:38:46;10.05;;;3.47;;
20251;SDS011;10284;58.364;15.550;2023-07-08T04:41:12;12.98;;;4.32;;
20251;SDS011;10284;58.364;15.550;2023-07-08T04:43:38;8.75;;;3.83;;
20251;SDS011;10284;58.364;15.550;2023-07-08T04:46:17;9.05;;;3.78;;
20251;SDS011;10284;58.364;15.550;2023-07-08T04:49:05;8.35;;;3.78;;
20251;SDS011;10284;58.364;15.550;2023-07-08T04:51:32;7.10;;;3.55;;
20251;SDS011;10284;58.364;15.550;2023-07-08T04:53:57;12.15;;;4.15;;
20251;SDS011;10284;58.364;15.550;2023-07-08T04:56:24;12.38;;;4.20;;
20251;SDS011;10284;58.364;15.550;2023-07-08T04:58:50;11.88;;;4.00;;
20251;SDS011;10284;58.364;15.550;2023-07-08T05:01:16;5.93;;;3.78;;
20251;SDS011;10284;58.364;15.550;2023-07-08T05:03:41;11.13;;;4.20;;
20251;SDS011;10284;58.364;15.550;2023-07-08T05:06:07;9.70;;;4.00;;
20251;SDS011;10284;58.364;15.550;2023-07-08T05:08:32;7.18;;;3.75;;
20251;SDS011;10284;58.364;15.550;2023-07-08T05:10:58;7.22;;;3.67;;
20251;SDS011;10284;58.364;15.550;2023-07-08T05:13:24;9.82;;;4.47;;
20251;SDS011;10284;58.364;15.550;2023-07-08T05:15:50;10.10;;;4.07;;
20251;SDS011;10284;58.364;15.550;2023-07-08T05:18:15;10.30;;;3.97;;
20251;SDS011;10284;58.364;15.550;2023-07-08T05:20:40;8.27;;;3.97;;
20251;SDS011;10284;58.364;15.550;2023-07-08T05:23:08;14.70;;;4.10;;
20251;SDS011;10284;58.364;15.550;2023-07-08T05:25:34;11.10;;;3.63;;
20251;SDS011;10284;58.364;15.550;2023-07-08T05:28:00;7.65;;;3.35;;
20251;SDS011;10284;58.364;15.550;2023-07-08T05:30:25;12.75;;;4.15;;
20251;SDS011;10284;58.364;15.550;2023-07-08T05:32:51;13.50;;;3.95;;
20251;SDS011;10284;58.364;15.550;2023-07-08T05:35:16;5.63;;;3.63;;
20251;SDS011;10284;58.364;15.550;2023-07-08T05:37:41;9.25;;;3.45;;
20251;SDS011;10284;58.364;15.550;2023-07-08T05:40:10;7.70;;;3.60;;
20251;SDS011;10284;58.364;15.550;2023-07-08T05:42:35;8.68;;;3.72;;
20251;SDS011;10284;58.364;15.550;2023-07-08T05:45:01;10.95;;;3.45;;
20251;SDS011;10284;58.364;15.550;2023-07-08T05:47:27;9.30;;;4.05;;
20251;SDS011;10284;58.364;15.550;2023-07-08T05:49:52;8.75;;;3.42;;
20251;SDS011;10284;58.364;15.550;2023-07-08T05:52:18;9.43;;;3.70;;
20251;SDS011;10284;58.364;15.550;2023-07-08T05:54:43;9.85;;;3.85;;
20251;SDS011;10284;58.364;15.550;2023-07-08T05:57:09;11.48;;;4.10;;
20251;SDS011;10284;58.364;15.550;2023-07-08T05:59:36;10.02;;;4.00;;
20251;SDS011;10284;58.364;15.550;2023-07-08T06:02:03;10.73;;;3.60;;
20251;SDS011;10284;58.364;15.550;2023-07-08T06:04:29;7.15;;;3.22;;
20251;SDS011;10284;58.364;15.550;2023-07-08T06:06:56;9.70;;;3.70;;
20251;SDS011;10284;58.364;15.550;2023-07-08T06:09:21;9.73;;;3.47;;
20251;SDS011;10284;58.364;15.550;2023-07-08T06:11:47;6.57;;;3.50;;
20251;SDS011;10284;58.364;15.550;2023-07-08T06:14:12;8.73;;;3.60;;
20251;SDS011;10284;58.364;15.550;2023-07-08T06:16:37;8.85;;;3.45;;
20251;SDS011;10284;58.364;15.550;2023-07-08T06:19:03;13.70;;;3.72;;
20251;SDS011;10284;58.364;15.550;2023-07-08T06:21:28;10.68;;;3.70;;
20251;SDS011;10284;58.364;15.550;2023-07-08T06:23:54;6.85;;;3.13;;
20251;SDS011;10284;58.364;15.550;2023-07-08T06:26:19;7.25;;;3.45;;
20251;SDS011;10284;58.364;15.550;2023-07-08T06:28:45;7.38;;;3.53;;
20251;SDS011;10284;58.364;15.550;2023-07-08T06:31:10;6.40;;;3.20;;
20251;SDS011;10284;58.364;15.550;2023-07-08T06:33:35;8.25;;;3.28;;
20251;SDS011;10284;58.364;15.550;2023-07-08T06:36:01;8.00;;;3.15;;
20251;SDS011;10284;58.364;15.550;2023-07-08T06:38:27;9.65;;;3.50;;
20251;SDS011;10284;58.364;15.550;2023-07-08T06:40:52;7.78;;;2.95;;
20251;SDS011;10284;58.364;15.550;2023-07-08T06:43:17;7.93;;;3.40;;
20251;SDS011;10284;58.364;15.550;2023-07-08T06:45:43;7.10;;;3.17;;
20251;SDS011;10284;58.364;15.550;2023-07-08T06:48:08;8.63;;;3.33;;
20251;SDS011;10284;58.364;15.550;2023-07-08T06:50:34;9.48;;;3.50;;
20251;SDS011;10284;58.364;15.550;2023-07-08T06:52:59;7.32;;;2.90;;
20251;SDS011;10284;58.364;15.550;2023-07-08T06:55:25;8.45;;;3.00;;
20251;SDS011;10284;58.364;15.550;2023-07-08T06:57:51;9.75;;;3.22;;
20251;SDS011;10284;58.364;15.550;2023-07-08T07:00:17;6.10;;;3.83;;
20251;SDS011;10284;58.364;15.550;2023-07-08T07:02:42;6.60;;;3.13;;
20251;SDS011;10284;58.364;15.550;2023-07-08T07:05:08;10.85;;;3.47;;
20251;SDS011;10284;58.364;15.550;2023-07-08T07:07:34;7.97;;;3.55;;
20251;SDS011;10284;58.364;15.550;2023-07-08T07:09:59;13.00;;;3.75;;
20251;SDS011;10284;58.364;15.550;2023-07-08T07:12:25;7.63;;;3.28;;
20251;SDS011;10284;58.364;15.550;2023-07-08T07:14:51;6.18;;;3.15;;
20251;SDS011;10284;58.364;15.550;2023-07-08T07:17:21;8.35;;;3.53;;
20251;SDS011;10284;58.364;15.550;2023-07-08T07:19:48;7.97;;;3.00;;
20251;SDS011;10284;58.364;15.550;2023-07-08T07:22:13;7.93;;;3.05;;
20251;SDS011;10284;58.364;15.550;2023-07-08T07:24:39;8.68;;;3.38;;
20251;SDS011;10284;58.364;15.550;2023-07-08T07:27:05;5.28;;;2.80;;
20251;SDS011;10284;58.364;15.550;2023-07-08T07:29:38;8.38;;;2.92;;
20251;SDS011;10284;58.364;15.550;2023-07-08T07:34:31;5.00;;;2.80;;
20251;SDS011;10284;58.364;15.550;2023-07-08T07:36:56;7.93;;;3.13;;
20251;SDS011;10284;58.364;15.550;2023-07-08T07:39:22;8.75;;;3.30;;
20251;SDS011;10284;58.364;15.550;2023-07-08T07:41:47;10.55;;;3.38;;
20251;SDS011;10284;58.364;15.550;2023-07-08T07:44:13;6.90;;;2.85;;
20251;SDS011;10284;58.364;15.550;2023-07-08T07:46:38;5.90;;;2.88;;
20251;SDS011;10284;58.364;15.550;2023-07-08T07:49:04;7.78;;;2.78;;
20251;SDS011;10284;58.364;15.550;2023-07-08T07:51:29;7.50;;;2.78;;
20251;SDS011;10284;58.364;15.550;2023-07-08T07:53:54;6.57;;;2.75;;
20251;SDS011;10284;58.364;15.550;2023-07-08T07:56:20;6.00;;;2.70;;
20251;SDS011;10284;58.364;15.550;2023-07-08T07:58:45;10.35;;;3.00;;
20251;SDS011;10284;58.364;15.550;2023-07-08T08:01:11;8.60;;;3.40;;
20251;SDS011;10284;58.364;15.550;2023-07-08T08:03:38;8.82;;;2.90;;
20251;SDS011;10284;58.364;15.550;2023-07-08T08:06:04;11.27;;;2.50;;
20251;SDS011;10284;58.364;15.550;2023-07-08T08:08:29;5.10;;;2.25;;
20251;SDS011;10284;58.364;15.550;2023-07-08T08:10:54;7.32;;;2.58;;
20251;SDS011;10284;58.364;15.550;2023-07-08T08:13:20;5.85;;;2.58;;
20251;SDS011;10284;58.364;15.550;2023-07-08T08:15:45;5.35;;;2.70;;
20251;SDS011;10284;58.364;15.550;2023-07-08T08:18:11;7.10;;;2.80;;
20251;SDS011;10284;58.364;15.550;2023-07-08T08:20:36;7.07;;;2.67;;
20251;SDS011;10284;58.364;15.550;2023-07-08T08:23:04;11.07;;;3.15;;
20251;SDS011;10284;58.364;15.550;2023-07-08T08:25:31;4.97;;;2.40;;
20251;SDS011;10284;58.364;15.550;2023-07-08T08:27:56;8.32;;;2.90;;
20251;SDS011;10284;58.364;15.550;2023-07-08T08:30:22;6.93;;;2.65;;
20251;SDS011;10284;58.364;15.550;2023-07-08T08:32:47;6.72;;;2.47;;
20251;SDS011;10284;58.364;15.550;2023-07-08T08:35:13;5.05;;;2.30;;
20251;SDS011;10284;58.364;15.550;2023-07-08T08:37:38;5.03;;;2.35;;
20251;SDS011;10284;58.364;15.550;2023-07-08T08:40:04;5.90;;;2.10;;
20251;SDS011;10284;58.364;15.550;2023-07-08T08:45:44;5.47;;;2.50;;
20251;SDS011;10284;58.364;15.550;2023-07-08T08:48:15;5.07;;;2.05;;
20251;SDS011;10284;58.364;15.550;2023-07-08T08:53:21;6.05;;;2.38;;
20251;SDS011;10284;58.364;15.550;2023-07-08T08:55:50;5.32;;;2.22;;
20251;SDS011;10284;58.364;15.550;2023-07-08T08:58:29;3.20;;;1.85;;
20251;SDS011;10284;58.364;15.550;2023-07-08T09:00:59;3.75;;;1.80;;
20251;SDS011;10284;58.364;15.550;2023-07-08T09:06:29;3.97;;;1.95;;
20251;SDS011;10284;58.364;15.550;2023-07-08T09:09:10;6.38;;;2.17;;
20251;SDS011;10284;58.364;15.550;2023-07-08T09:14:43;3.10;;;1.83;;
20251;SDS011;10284;58.364;15.550;2023-07-08T09:17:14;6.93;;;2.00;;
20251;SDS011;10284;58.364;15.550;2023-07-08T09:23:16;2.42;;;1.55;;
20251;SDS011;10284;58.364;15.550;2023-07-08T09:25:47;2.97;;;1.77;;
20251;SDS011;10284;58.364;15.550;2023-07-08T09:28:16;4.80;;;1.88;;
20251;SDS011;10284;58.364;15.550;2023-07-08T09:30:41;3.13;;;1.80;;
20251;SDS011;10284;58.364;15.550;2023-07-08T09:33:10;4.35;;;1.85;;
20251;SDS011;10284;58.364;15.550;2023-07-08T09:35:43;3.63;;;2.00;;
20251;SDS011;10284;58.364;15.550;2023-07-08T09:38:15;6.43;;;1.90;;
20251;SDS011;10284;58.364;15.550;2023-07-08T09:40:51;2.63;;;2.05;;
20251;SDS011;10284;58.364;15.550;2023-07-08T09:43:26;5.20;;;1.83;;
20251;SDS011;10284;58.364;15.550;2023-07-08T09:45:55;2.95;;;1.52;;
20251;SDS011;10284;58.364;15.550;2023-07-08T09:48:26;2.00;;;1.40;;
20251;SDS011;10284;58.364;15.550;2023-07-08T09:50:56;3.30;;;1.67;;
20251;SDS011;10284;58.364;15.550;2023-07-08T09:53:22;2.05;;;1.00;;
20251;SDS011;10284;58.364;15.550;2023-07-08T09:55:49;2.20;;;1.52;;
20251;SDS011;10284;58.364;15.550;2023-07-08T09:58:19;1.98;;;1.48;;
20251;SDS011;10284;58.364;15.550;2023-07-08T10:00:53;2.50;;;1.70;;
20251;SDS011;10284;58.364;15.550;2023-07-08T10:03:21;1.95;;;1.23;;
20251;SDS011;10284;58.364;15.550;2023-07-08T10:05:49;2.45;;;1.30;;
20251;SDS011;10284;58.364;15.550;2023-07-08T10:08:21;1.67;;;1.48;;
20251;SDS011;10284;58.364;15.550;2023-07-08T10:10:52;2.75;;;1.85;;
20251;SDS011;10284;58.364;15.550;2023-07-08T10:13:40;5.78;;;1.80;;
20251;SDS011;10284;58.364;15.550;2023-07-08T10:18:46;2.92;;;1.48;;
20251;SDS011;10284;58.364;15.550;2023-07-08T10:31:38;2.70;;;1.60;;
20251;SDS011;10284;58.364;15.550;2023-07-08T10:37:01;2.35;;;1.38;;
20251;SDS011;10284;58.364;15.550;2023-07-08T10:39:44;1.38;;;1.27;;
20251;SDS011;10284;58.364;15.550;2023-07-08T10:42:36;3.05;;;1.50;;
20251;SDS011;10284;58.364;15.550;2023-07-08T10:45:21;2.78;;;1.50;;
20251;SDS011;10284;58.364;15.550;2023-07-08T10:50:49;2.15;;;1.65;;
20251;SDS011;10284;58.364;15.550;2023-07-08T10:56:20;1.55;;;1.45;;
20251;SDS011;10284;58.364;15.550;2023-07-08T11:09:56;2.28;;;1.52;;
20251;SDS011;10284;58.364;15.550;2023-07-08T11:15:43;2.83;;;1.60;;
20251;SDS011;10284;58.364;15.550;2023-07-08T11:18:14;2.35;;;1.75;;
20251;SDS011;10284;58.364;15.550;2023-07-08T11:20:44;1.73;;;1.50;;
20251;SDS011;10284;58.364;15.550;2023-07-08T11:23:22;1.83;;;1.50;;
20251;SDS011;10284;58.364;15.550;2023-07-08T11:25:59;1.75;;;1.48;;
20251;SDS011;10284;58.364;15.550;2023-07-08T11:28:32;3.38;;;1.40;;
20251;SDS011;10284;58.364;15.550;2023-07-08T11:30:58;2.08;;;1.35;;
20251;SDS011;10284;58.364;15.550;2023-07-08T11:33:26;2.20;;;1.33;;
20251;SDS011;10284;58.364;15.550;2023-07-08T11:35:55;1.90;;;1.50;;
20251;SDS011;10284;58.364;15.550;2023-07-08T11:38:24;2.30;;;1.27;;
20251;SDS011;10284;58.364;15.550;2023-07-08T11:46:24;2.47;;;1.63;;
20251;SDS011;10284;58.364;15.550;2023-07-08T11:48:53;2.03;;;1.67;;
20251;SDS011;10284;58.364;15.550;2023-07-08T11:51:22;3.35;;;1.80;;
20251;SDS011;10284;58.364;15.550;2023-07-08T11:53:50;1.48;;;1.30;;
20251;SDS011;10284;58.364;15.550;2023-07-08T11:56:24;1.80;;;1.33;;
20251;SDS011;10284;58.364;15.550;2023-07-08T11:59:13;2.33;;;1.65;;
20251;SDS011;10284;58.364;15.550;2023-07-08T12:04:17;2.23;;;1.47;;
20251;SDS011;10284;58.364;15.550;2023-07-08T12:06:48;2.92;;;1.50;;
20251;SDS011;10284;58.364;15.550;2023-07-08T12:09:27;3.90;;;1.83;;
20251;SDS011;10284;58.364;15.550;2023-07-08T12:12:03;4.72;;;1.80;;
20251;SDS011;10284;58.364;15.550;2023-07-08T12:14:32;2.75;;;1.52;;
20251;SDS011;10284;58.364;15.550;2023-07-08T12:16:58;2.72;;;2.10;;
20251;SDS011;10284;58.364;15.550;2023-07-08T12:19:25;2.70;;;1.77;;
20251;SDS011;10284;58.364;15.550;2023-07-08T12:21:52;2.50;;;1.70;;
20251;SDS011;10284;58.364;15.550;2023-07-08T12:24:18;2.30;;;1.70;;
20251;SDS011;10284;58.364;15.550;2023-07-08T12:26:43;4.38;;;1.85;;
20251;SDS011;10284;58.364;15.550;2023-07-08T12:29:12;4.15;;;1.90;;
20251;SDS011;10284;58.364;15.550;2023-07-08T12:31:41;4.57;;;1.90;;
20251;SDS011;10284;58.364;15.550;2023-07-08T12:34:11;4.32;;;1.45;;
20251;SDS011;10284;58.364;15.550;2023-07-08T12:36:38;3.25;;;1.60;;
20251;SDS011;10284;58.364;15.550;2023-07-08T12:39:04;2.13;;;1.85;;
20251;SDS011;10284;58.364;15.550;2023-07-08T12:41:34;2.78;;;1.42;;
20251;SDS011;10284;58.364;15.550;2023-07-08T12:44:00;3.40;;;1.80;;
20251;SDS011;10284;58.364;15.550;2023-07-08T12:46:26;4.97;;;3.15;;
20251;SDS011;10284;58.364;15.550;2023-07-08T12:48:52;3.85;;;1.90;;
20251;SDS011;10284;58.364;15.550;2023-07-08T12:51:23;3.15;;;1.75;;
20251;SDS011;10284;58.364;15.550;2023-07-08T12:53:50;2.88;;;1.73;;
20251;SDS011;10284;58.364;15.550;2023-07-08T12:56:17;2.78;;;1.67;;
20251;SDS011;10284;58.364;15.550;2023-07-08T12:58:48;3.10;;;1.85;;
20251;SDS011;10284;58.364;15.550;2023-07-08T13:01:19;3.17;;;2.00;;
20251;SDS011;10284;58.364;15.550;2023-07-08T13:03:46;5.70;;;1.90;;
20251;SDS011;10284;58.364;15.550;2023-07-08T13:06:16;2.60;;;1.60;;
20251;SDS011;10284;58.364;15.550;2023-07-08T13:08:43;2.75;;;1.73;;
20251;SDS011;10284;58.364;15.550;2023-07-08T13:11:11;2.85;;;1.65;;
20251;SDS011;10284;58.364;15.550;2023-07-08T13:13:53;3.35;;;2.00;;
20251;SDS011;10284;58.364;15.550;2023-07-08T13:16:20;3.17;;;1.92;;
20251;SDS011;10284;58.364;15.550;2023-07-08T13:18:49;4.28;;;1.88;;
20251;SDS011;10284;58.364;15.550;2023-07-08T13:21:15;2.90;;;1.55;;
20251;SDS011;10284;58.364;15.550;2023-07-08T13:23:41;2.90;;;1.80;;
20251;SDS011;10284;58.364;15.550;2023-07-08T13:26:23;1.98;;;1.52;;
20251;SDS011;10284;58.364;15.550;2023-07-08T13:28:53;2.97;;;1.67;;
20251;SDS011;10284;58.364;15.550;2023-07-08T13:31:34;4.65;;;2.22;;
20251;SDS011;10284;58.364;15.550;2023-07-08T13:34:05;1.95;;;1.52;;
20251;SDS011;10284;58.364;15.550;2023-07-08T13:36:35;3.03;;;1.90;;
20251;SDS011;10284;58.364;15.550;2023-07-08T13:39:02;1.95;;;1.52;;
20251;SDS011;10284;58.364;15.550;2023-07-08T13:41:33;3.50;;;1.70;;
20251;SDS011;10284;58.364;15.550;2023-07-08T13:44:03;2.50;;;1.70;;
20251;SDS011;10284;58.364;15.550;2023-07-08T13:46:33;3.38;;;1.67;;
20251;SDS011;10284;58.364;15.550;2023-07-08T13:49:16;2.40;;;1.63;;
20251;SDS011;10284;58.364;15.550;2023-07-08T13:51:45;1.60;;;1.50;;
20251;SDS011;10284;58.364;15.550;2023-07-08T13:54:22;4.03;;;1.80;;
20251;SDS011;10284;58.364;15.550;2023-07-08T13:56:50;3.58;;;1.73;;
20251;SDS011;10284;58.364;15.550;2023-07-08T13:59:18;2.45;;;1.60;;
20251;SDS011;10284;58.364;15.550;2023-07-08T14:01:47;2.55;;;1.65;;
20251;SDS011;10284;58.364;15.550;2023-07-08T14:04:15;3.50;;;1.70;;
20251;SDS011;10284;58.364;15.550;2023-07-08T14:06:42;2.67;;;1.88;;
20251;SDS011;10284;58.364;15.550;2023-07-08T14:11:46;1.80;;;1.45;;
20251;SDS011;10284;58.364;15.550;2023-07-08T14:14:12;2.80;;;1.83;;
20251;SDS011;10284;58.364;15.550;2023-07-08T14:16:42;1.58;;;1.48;;
20251;SDS011;10284;58.364;15.550;2023-07-08T14:19:42;2.85;;;2.00;;
20251;SDS011;10284;58.364;15.550;2023-07-08T14:22:03;2.40;;;1.40;;
20251;SDS011;10284;58.364;15.550;2023-07-08T14:24:41;3.92;;;1.75;;
20251;SDS011;10284;58.364;15.550;2023-07-08T14:27:10;1.52;;;1.42;;
20251;SDS011;10284;58.364;15.550;2023-07-08T14:29:40;4.10;;;1.83;;
20251;SDS011;10284;58.364;15.550;2023-07-08T14:32:11;2.13;;;1.63;;
20251;SDS011;10284;58.364;15.550;2023-07-08T14:34:38;1.80;;;1.52;;
20251;SDS011;10284;58.364;15.550;2023-07-08T14:37:07;2.88;;;1.90;;
20251;SDS011;10284;58.364;15.550;2023-07-08T14:39:36;2.83;;;1.60;;
20251;SDS011;10284;58.364;15.550;2023-07-08T14:42:02;3.05;;;1.60;;
20251;SDS011;10284;58.364;15.550;2023-07-08T14:44:36;2.40;;;1.70;;
20251;SDS011;10284;58.364;15.550;2023-07-08T14:47:02;1.55;;;1.38;;
20251;SDS011;10284;58.364;15.550;2023-07-08T14:49:27;2.00;;;1.80;;
20251;SDS011;10284;58.364;15.550;2023-07-08T14:51:53;3.17;;;1.63;;
20251;SDS011;10284;58.364;15.550;2023-07-08T14:54:18;1.88;;;1.50;;
20251;SDS011;10284;58.364;15.550;2023-07-08T14:56:45;1.77;;;1.67;;
20251;SDS011;10284;58.364;15.550;2023-07-08T14:59:13;3.25;;;1.98;;
20251;SDS011;10284;58.364;15.550;2023-07-08T15:01:41;1.90;;;1.70;;
20251;SDS011;10284;58.364;15.550;2023-07-08T15:04:10;1.88;;;1.50;;
20251;SDS011;10284;58.364;15.550;2023-07-08T15:06:36;2.25;;;1.92;;
20251;SDS011;10284;58.364;15.550;2023-07-08T15:09:02;3.60;;;1.80;;
20251;SDS011;10284;58.364;15.550;2023-07-08T15:11:28;1.58;;;1.42;;
20251;SDS011;10284;58.364;15.550;2023-07-08T15:13:53;2.03;;;1.52;;
20251;SDS011;10284;58.364;15.550;2023-07-08T15:16:19;3.35;;;1.73;;
20251;SDS011;10284;58.364;15.550;2023-07-08T15:18:44;1.95;;;1.63;;
20251;SDS011;10284;58.364;15.550;2023-07-08T15:21:11;2.40;;;1.60;;
20251;SDS011;10284;58.364;15.550;2023-07-08T15:23:37;1.88;;;1.60;;
20251;SDS011;10284;58.364;15.550;2023-07-08T15:26:02;1.80;;;1.40;;
20251;SDS011;10284;58.364;15.550;2023-07-08T15:28:38;2.90;;;1.83;;
20251;SDS011;10284;58.364;15.550;2023-07-08T15:31:07;2.63;;;1.60;;
20251;SDS011;10284;58.364;15.550;2023-07-08T15:33:36;2.38;;;1.33;;
20251;SDS011;10284;58.364;15.550;2023-07-08T15:36:01;3.15;;;1.45;;
20251;SDS011;10284;58.364;15.550;2023-07-08T15:38:27;3.30;;;2.03;;
20251;SDS011;10284;58.364;15.550;2023-07-08T15:40:52;2.58;;;1.63;;
20251;SDS011;10284;58.364;15.550;2023-07-08T15:43:17;1.80;;;1.40;;
20251;SDS011;10284;58.364;15.550;2023-07-08T15:45:43;1.50;;;1.40;;
20251;SDS011;10284;58.364;15.550;2023-07-08T15:48:13;1.70;;;1.40;;
20251;SDS011;10284;58.364;15.550;2023-07-08T15:50:39;2.15;;;1.55;;